createdAt,value
2022-12-03T00:01:33.511Z,29.40
2022-12-03T00:04:05.427Z,29.44
2022-12-03T00:06:37.571Z,29.47
2022-12-03T00:09:08.911Z,29.48
2022-12-03T00:11:40.480Z,29.52
2022-12-03T00:14:12.431Z,29.55
2022-12-03T00:16:43.756Z,29.59
2022-12-03T00:19:15.042Z,29.60
2022-12-03T00:21:46.548Z,29.46
2022-12-03T00:24:18.188Z,29.62
2022-12-03T00:26:49.479Z,29.73
2022-12-03T00:29:20.781Z,29.74
2022-12-03T00:31:52.096Z,29.69
2022-12-03T00:34:24.113Z,29.78
2022-12-03T00:36:55.443Z,29.76
2022-12-03T00:39:26.747Z,29.84
2022-12-03T00:41:58.197Z,29.85
2022-12-03T00:44:30.164Z,29.95
2022-12-03T00:47:01.730Z,29.89
2022-12-03T00:49:32.850Z,29.62
2022-12-03T00:52:04.265Z,29.89
2022-12-03T00:54:36.056Z,30.01
2022-12-03T00:57:07.643Z,30.05
2022-12-03T00:59:39.014Z,30.03
2022-12-03T01:02:10.503Z,30.09
2022-12-03T01:04:42.535Z,30.03
2022-12-03T01:07:15.110Z,30.07
2022-12-03T01:09:46.421Z,30.06
2022-12-03T01:12:17.685Z,30.04
2022-12-03T01:14:49.357Z,30.04
2022-12-03T01:17:20.595Z,30.12
2022-12-03T01:19:54.021Z,30.09
2022-12-03T01:22:25.523Z,30.09
2022-12-03T01:24:57.230Z,30.14
2022-12-03T01:27:28.804Z,29.87
2022-12-03T01:29:59.861Z,29.88
2022-12-03T01:32:31.138Z,30.19
2022-12-03T01:35:02.370Z,30.24
2022-12-03T01:37:33.673Z,30.27
2022-12-03T01:40:06.288Z,30.30
2022-12-03T01:42:41.629Z,29.97
2022-12-03T01:45:22.836Z,29.96
2022-12-03T01:47:54.131Z,30.37
2022-12-03T01:50:35.924Z,29.88
2022-12-03T01:53:06.993Z,30.05
2022-12-03T01:55:38.833Z,30.39
2022-12-03T01:58:14.583Z,30.02
2022-12-03T02:00:45.884Z,30.45
2022-12-03T02:03:26.477Z,30.48
2022-12-03T02:05:58.391Z,30.48
2022-12-03T02:08:36.873Z,30.53
2022-12-03T02:11:17.201Z,30.54
2022-12-03T02:13:50.299Z,30.20
2022-12-03T02:16:21.758Z,30.47
2022-12-03T02:18:53.215Z,30.36
2022-12-03T02:21:58.015Z,30.55
2022-12-03T02:24:49.036Z,30.56
2022-12-03T02:27:20.693Z,30.52
2022-12-03T02:29:51.811Z,30.25
2022-12-03T02:32:25.112Z,30.49
2022-12-03T02:34:56.710Z,30.53
2022-12-03T02:37:37.799Z,29.97
2022-12-03T02:40:14.542Z,30.53
2022-12-03T02:42:47.153Z,30.43
2022-12-03T02:45:20.776Z,30.08
2022-12-03T02:48:14.949Z,30.44
2022-12-03T02:50:53.658Z,30.05
2022-12-03T02:53:47.113Z,30.51
2022-12-03T02:56:25.617Z,30.64
2022-12-03T02:59:02.024Z,30.66
2022-12-03T03:01:33.967Z,30.66
2022-12-03T03:04:05.995Z,30.46
2022-12-03T03:06:37.330Z,30.69
2022-12-03T03:09:08.710Z,30.72
2022-12-03T03:11:40.146Z,30.73
2022-12-03T03:14:11.544Z,30.76
2022-12-03T03:16:43.702Z,30.77
2022-12-03T03:19:15.247Z,30.82
2022-12-03T03:21:47.066Z,30.83
2022-12-03T03:24:18.575Z,30.86
2022-12-03T03:26:52.160Z,30.89
2022-12-03T03:29:23.687Z,30.79
2022-12-03T03:31:55.332Z,30.89
2022-12-03T03:34:28.855Z,30.89
2022-12-03T03:37:00.566Z,30.90
2022-12-03T03:39:32.235Z,30.88
2022-12-03T03:42:07.233Z,30.90
2022-12-03T03:44:38.906Z,30.94
2022-12-03T03:47:10.452Z,30.94
2022-12-03T03:49:42.311Z,30.97
2022-12-03T03:52:13.536Z,30.76
2022-12-03T03:54:45.404Z,30.88
2022-12-03T03:57:16.869Z,31.04
2022-12-03T03:59:48.892Z,30.99
2022-12-03T04:02:26.562Z,30.96
2022-12-03T04:04:58.139Z,31.14
2022-12-03T04:07:30.152Z,30.71
2022-12-03T04:10:01.005Z,31.00
2022-12-03T04:12:50.330Z,31.23
2022-12-03T04:15:21.679Z,31.14
2022-12-03T04:18:12.246Z,31.20
2022-12-03T04:20:45.582Z,31.17
2022-12-03T04:23:17.558Z,31.24
2022-12-03T04:26:06.768Z,31.14
2022-12-03T04:28:53.188Z,31.22
2022-12-03T04:31:42.209Z,31.24
2022-12-03T04:34:31.534Z,31.21
2022-12-03T04:37:03.397Z,31.13
2022-12-03T04:39:34.867Z,31.07
2022-12-03T04:42:07.357Z,31.21
2022-12-03T04:44:39.657Z,31.24
2022-12-03T04:47:23.973Z,31.27
2022-12-03T04:49:55.267Z,31.34
2022-12-03T04:52:26.806Z,31.40
2022-12-03T04:54:58.688Z,31.43
2022-12-03T04:57:30.039Z,31.46
2022-12-03T05:00:01.291Z,31.56
2022-12-03T05:02:33.948Z,31.64
2022-12-03T05:05:05.350Z,31.63
2022-12-03T05:07:36.877Z,31.68
2022-12-03T05:10:09.624Z,31.76
2022-12-03T05:12:40.386Z,31.49
2022-12-03T05:15:12.115Z,31.80
2022-12-03T05:17:42.801Z,31.53
2022-12-03T05:20:32.882Z,31.79
2022-12-03T05:23:04.245Z,31.80
2022-12-03T05:25:35.763Z,31.94
2022-12-03T05:28:08.875Z,31.65
2022-12-03T05:30:40.528Z,31.85
2022-12-03T05:33:12.385Z,32.01
2022-12-03T05:35:43.715Z,32.03
2022-12-03T05:38:15.238Z,31.97
2022-12-03T05:40:46.948Z,32.03
2022-12-03T05:43:18.201Z,32.09
2022-12-03T05:45:49.832Z,32.06
2022-12-03T05:48:22.387Z,32.07
2022-12-03T05:50:53.739Z,32.02
2022-12-03T05:53:25.194Z,31.97
2022-12-03T05:55:56.456Z,31.84
2022-12-03T05:58:27.855Z,31.72
2022-12-03T06:00:59.113Z,31.63
2022-12-03T06:03:30.575Z,31.54
2022-12-03T06:06:02.094Z,31.43
2022-12-03T06:08:33.336Z,31.38
2022-12-03T06:11:04.648Z,31.24
2022-12-03T06:13:36.376Z,31.27
2022-12-03T06:16:07.988Z,31.13
2022-12-03T06:18:39.649Z,31.18
2022-12-03T06:21:10.936Z,31.07
2022-12-03T06:23:46.033Z,31.05
2022-12-03T06:26:17.518Z,31.09
2022-12-03T06:28:50.794Z,31.07
2022-12-03T06:31:22.094Z,31.06
2022-12-03T06:33:53.386Z,31.04
2022-12-03T06:36:24.758Z,30.96
2022-12-03T06:38:58.683Z,31.03
2022-12-03T06:41:30.099Z,30.63
2022-12-03T06:44:02.021Z,30.96
2022-12-03T06:46:34.091Z,30.97
2022-12-03T06:49:06.097Z,30.81
2022-12-03T06:51:37.224Z,30.69
2022-12-03T06:54:09.135Z,30.91
2022-12-03T06:56:45.099Z,30.89
2022-12-03T06:59:17.447Z,30.91
2022-12-03T07:01:48.759Z,30.91
2022-12-03T07:04:20.146Z,30.78
2022-12-03T07:06:51.579Z,30.80
2022-12-03T07:09:22.881Z,30.87
2022-12-03T07:11:54.181Z,30.65
2022-12-03T07:14:25.642Z,30.80
2022-12-03T07:16:56.825Z,30.66
2022-12-03T07:19:32.531Z,30.86
2022-12-03T07:22:05.292Z,30.70
2022-12-03T07:24:36.668Z,30.87
2022-12-03T07:27:08.419Z,30.83
2022-12-03T07:29:39.864Z,30.84
2022-12-03T07:32:11.514Z,30.84
2022-12-03T07:34:43.184Z,30.81
2022-12-03T07:37:18.626Z,30.84
2022-12-03T07:39:54.027Z,30.85
2022-12-03T07:42:25.322Z,30.79
2022-12-03T07:44:56.714Z,30.82
2022-12-03T07:47:28.291Z,30.74
2022-12-03T07:49:59.787Z,30.77
2022-12-03T07:52:31.121Z,30.84
2022-12-03T07:55:02.531Z,30.83
2022-12-03T07:57:34.025Z,30.72
2022-12-03T08:00:07.063Z,31.02
2022-12-03T08:02:39.564Z,31.19
2022-12-03T08:05:11.157Z,31.26
2022-12-03T08:07:42.632Z,31.43
2022-12-03T08:10:14.353Z,31.51
2022-12-03T08:12:45.839Z,31.56
2022-12-03T08:15:26.168Z,31.64
2022-12-03T08:18:00.616Z,31.32
2022-12-03T08:20:39.701Z,31.64
2022-12-03T08:23:22.611Z,31.71
2022-12-03T08:25:55.251Z,31.73
2022-12-03T08:28:28.889Z,31.87
2022-12-03T08:31:14.240Z,31.71
2022-12-03T08:33:45.980Z,31.77
2022-12-03T08:36:31.038Z,31.81
2022-12-03T08:39:20.742Z,31.53
2022-12-03T08:42:38.361Z,31.86
2022-12-03T08:45:40.991Z,31.79
2022-12-03T08:48:21.988Z,32.00
2022-12-03T08:50:58.327Z,31.99
2022-12-03T08:53:37.625Z,32.01
2022-12-03T08:56:23.527Z,31.93
2022-12-03T08:58:59.748Z,31.99
2022-12-03T09:01:34.129Z,31.65
2022-12-03T09:04:40.720Z,31.94
2022-12-03T09:07:12.715Z,32.01
2022-12-03T09:09:43.593Z,31.80
2022-12-03T09:12:15.581Z,32.01
2022-12-03T09:14:46.994Z,31.96
2022-12-03T09:17:20.533Z,31.89
2022-12-03T09:19:52.553Z,31.96
2022-12-03T09:22:23.411Z,31.74
2022-12-03T09:24:55.676Z,31.88
2022-12-03T09:27:27.532Z,31.72
2022-12-03T09:29:59.287Z,31.56
2022-12-03T09:32:30.835Z,31.47
2022-12-03T09:35:11.168Z,31.39
2022-12-03T09:37:42.731Z,31.63
2022-12-03T09:40:15.231Z,31.60
2022-12-03T09:42:47.350Z,31.47
2022-12-03T09:45:19.664Z,31.52
2022-12-03T09:47:52.908Z,31.53
2022-12-03T09:50:28.586Z,31.55
2022-12-03T09:53:04.374Z,31.57
2022-12-03T09:55:36.215Z,31.51
2022-12-03T09:58:16.571Z,31.55
2022-12-03T10:00:53.868Z,31.09
2022-12-03T10:03:30.150Z,31.55
2022-12-03T10:06:01.730Z,31.58
2022-12-03T10:08:34.480Z,31.54
2022-12-03T10:11:06.378Z,31.55
2022-12-03T10:13:39.152Z,31.36
2022-12-03T10:16:20.521Z,31.54
2022-12-03T10:18:58.553Z,31.57
2022-12-03T10:21:33.711Z,31.12
2022-12-03T10:24:20.636Z,31.50
2022-12-03T10:26:54.030Z,31.53
2022-12-03T10:29:33.600Z,31.54
2022-12-03T10:32:08.950Z,31.54
2022-12-03T10:34:42.956Z,31.51
2022-12-03T10:37:22.097Z,31.54
2022-12-03T10:40:02.499Z,31.51
2022-12-03T10:42:36.475Z,31.50
2022-12-03T10:45:19.510Z,30.99
2022-12-03T10:48:06.237Z,31.45
2022-12-03T10:50:39.392Z,31.48
2022-12-03T10:53:11.904Z,31.50
2022-12-03T10:55:46.200Z,31.47
2022-12-03T10:58:22.785Z,31.48
2022-12-03T11:00:56.895Z,31.19
2022-12-03T11:03:31.590Z,31.49
2022-12-03T11:06:04.529Z,31.37
2022-12-03T11:08:39.231Z,31.45
2022-12-03T11:11:20.218Z,31.45
2022-12-03T11:13:57.382Z,30.88
2022-12-03T11:16:44.395Z,31.37
2022-12-03T11:19:19.308Z,31.42
2022-12-03T11:22:12.102Z,31.39
2022-12-03T11:24:43.700Z,31.41
2022-12-03T11:27:15.104Z,31.38
2022-12-03T11:29:57.913Z,31.43
2022-12-03T11:32:41.915Z,31.42
2022-12-03T11:35:38.573Z,31.38
2022-12-03T11:38:50.720Z,31.51
2022-12-03T11:41:36.552Z,31.49
2022-12-03T11:44:30.197Z,31.53
2022-12-03T11:47:03.261Z,31.64
2022-12-03T11:49:39.754Z,31.68
2022-12-03T11:52:34.640Z,31.59
2022-12-03T11:55:36.277Z,31.10
2022-12-03T11:58:24.996Z,31.12
2022-12-03T12:00:59.717Z,31.36
2022-12-03T12:03:44.469Z,31.64
2022-12-03T12:06:22.178Z,31.14
2022-12-03T12:08:55.303Z,31.64
2022-12-03T12:11:38.499Z,31.53
2022-12-03T12:14:12.963Z,31.10
2022-12-03T12:16:56.617Z,31.60
2022-12-03T12:19:46.467Z,31.54
2022-12-03T12:22:22.673Z,31.64
2022-12-03T12:24:59.073Z,31.67
2022-12-03T12:27:55.226Z,31.54
2022-12-03T12:30:26.878Z,31.67
2022-12-03T12:33:25.365Z,31.55
2022-12-03T12:35:56.802Z,31.53
2022-12-03T12:38:30.062Z,31.65
2022-12-03T12:41:08.684Z,31.23
2022-12-03T12:43:41.323Z,31.68
2022-12-03T12:49:17.184Z,31.64
2022-12-03T12:51:50.950Z,31.55
2022-12-03T12:54:22.547Z,31.59
2022-12-03T12:56:54.629Z,31.60
2022-12-03T12:59:25.984Z,31.60
2022-12-03T13:01:57.929Z,31.52
2022-12-03T13:04:32.143Z,31.43
2022-12-03T13:07:03.885Z,31.58
2022-12-03T13:09:35.446Z,31.55
2022-12-03T13:12:09.009Z,31.47
2022-12-03T13:14:40.757Z,31.43
2022-12-03T13:17:26.119Z,31.01
2022-12-03T13:20:07.283Z,30.61
2022-12-03T13:22:39.456Z,31.44
2022-12-03T13:25:59.302Z,31.33
2022-12-03T13:28:32.396Z,30.92
2022-12-03T13:31:25.986Z,31.31
2022-12-03T13:33:59.107Z,31.38
2022-12-03T13:36:41.380Z,30.46
2022-12-03T13:39:23.375Z,30.87
2022-12-03T13:42:13.669Z,31.14
2022-12-03T13:44:50.833Z,30.53
2022-12-03T13:47:24.477Z,30.43
2022-12-03T13:50:14.284Z,30.75
2022-12-03T13:52:45.663Z,30.56
2022-12-03T13:55:29.363Z,30.23
2022-12-03T13:58:01.343Z,30.67
2022-12-03T14:00:33.871Z,30.63
2022-12-03T14:03:06.094Z,30.66
2022-12-03T14:05:37.852Z,30.63
2022-12-03T14:08:09.234Z,30.64
2022-12-03T14:10:40.606Z,30.60
2022-12-03T14:13:11.916Z,30.60
2022-12-03T14:15:43.314Z,30.27
2022-12-03T14:18:14.591Z,30.55
2022-12-03T14:20:46.200Z,30.56
2022-12-03T14:23:18.997Z,30.63
2022-12-03T14:25:50.419Z,30.61
2022-12-03T14:28:21.558Z,30.37
2022-12-03T14:30:52.761Z,30.56
2022-12-03T14:33:24.091Z,30.49
2022-12-03T14:35:57.528Z,30.30
2022-12-03T14:38:28.972Z,30.31
2022-12-03T14:41:00.276Z,30.28
2022-12-03T14:43:31.687Z,30.07
2022-12-03T14:46:03.553Z,30.09
2022-12-03T14:48:35.158Z,30.01
2022-12-03T14:51:06.642Z,29.89
2022-12-03T14:53:37.970Z,29.96
2022-12-03T14:56:09.235Z,29.88
2022-12-03T14:58:40.910Z,29.78
2022-12-03T15:01:12.383Z,29.80
2022-12-03T15:03:43.921Z,29.74
2022-12-03T15:06:15.243Z,29.71
2022-12-03T15:08:46.746Z,29.68
2022-12-03T15:11:18.271Z,29.62
2022-12-03T15:13:49.570Z,29.59
2022-12-03T15:16:21.293Z,29.55
2022-12-03T15:18:52.334Z,29.28
2022-12-03T15:21:23.903Z,29.46
2022-12-03T15:23:55.323Z,29.43
2022-12-03T15:26:26.814Z,29.39
2022-12-03T15:28:58.682Z,29.26
2022-12-03T15:31:30.901Z,29.31
2022-12-03T15:34:03.052Z,29.24
2022-12-03T15:36:34.632Z,29.28
2022-12-03T15:39:06.640Z,29.24
2022-12-03T15:41:38.386Z,29.21
2022-12-03T15:44:09.747Z,29.30
2022-12-03T15:46:41.138Z,29.22
2022-12-03T15:49:12.573Z,29.35
2022-12-03T15:51:43.873Z,29.39
2022-12-03T15:54:15.645Z,29.39
2022-12-03T15:56:46.904Z,29.38
2022-12-03T15:59:18.527Z,29.43
2022-12-03T16:01:50.324Z,29.43
2022-12-03T16:04:21.728Z,29.39
2022-12-03T16:06:53.214Z,29.08
2022-12-03T16:09:27.432Z,29.11
2022-12-03T16:11:59.031Z,29.38
2022-12-03T16:14:30.395Z,29.35
2022-12-03T16:17:01.748Z,29.30
2022-12-03T16:19:33.080Z,29.25
2022-12-03T16:22:05.250Z,29.25
2022-12-03T16:24:36.683Z,29.32
2022-12-03T16:27:08.400Z,29.33
2022-12-03T16:29:40.271Z,29.33
2022-12-03T16:32:11.630Z,29.33
2022-12-03T16:34:42.894Z,29.25
2022-12-03T16:37:14.361Z,29.30
2022-12-03T16:39:52.389Z,29.28
2022-12-03T16:42:25.636Z,29.31
2022-12-03T16:45:06.419Z,29.33
2022-12-03T16:47:38.967Z,29.30
2022-12-03T16:50:17.936Z,29.28
2022-12-03T16:52:52.313Z,29.25
2022-12-03T16:55:23.674Z,29.24
2022-12-03T16:57:55.032Z,29.28
2022-12-03T17:00:27.905Z,29.27
2022-12-03T17:02:59.334Z,29.10
2022-12-03T17:05:31.066Z,29.15
2022-12-03T17:08:02.269Z,28.93
2022-12-03T17:10:45.336Z,29.16
2022-12-03T17:13:17.340Z,29.14
2022-12-03T17:15:48.694Z,29.20
2022-12-03T17:18:20.160Z,29.18
2022-12-03T17:20:51.354Z,29.01
2022-12-03T17:23:22.699Z,29.13
2022-12-03T17:25:54.037Z,29.12
2022-12-03T17:28:25.880Z,29.11
2022-12-03T17:30:57.258Z,29.09
2022-12-03T17:33:29.214Z,29.06
2022-12-03T17:36:00.608Z,29.07
2022-12-03T17:38:37.337Z,28.93
2022-12-03T17:41:10.376Z,28.90
2022-12-03T17:43:41.642Z,29.00
2022-12-03T17:46:13.018Z,28.85
2022-12-03T17:48:44.333Z,28.90
2022-12-03T17:51:15.698Z,28.92
2022-12-03T17:53:47.371Z,28.82
2022-12-03T17:56:18.800Z,28.47
2022-12-03T17:58:50.050Z,28.88
2022-12-03T18:01:21.449Z,28.86
2022-12-03T18:03:52.739Z,28.85
2022-12-03T18:06:25.441Z,28.71
2022-12-03T18:08:56.796Z,28.79
2022-12-03T18:11:28.058Z,28.65
2022-12-03T18:14:00.093Z,28.74
2022-12-03T18:16:33.084Z,28.80
2022-12-03T18:19:06.378Z,28.22
2022-12-03T18:21:38.173Z,28.75
2022-12-03T18:24:10.003Z,28.73
2022-12-03T18:26:41.334Z,28.71
2022-12-03T18:29:12.642Z,28.63
2022-12-03T18:31:44.061Z,28.69
2022-12-03T18:34:15.406Z,28.52
2022-12-03T18:36:47.406Z,28.58
2022-12-03T18:39:35.462Z,28.22
2022-12-03T18:42:20.269Z,28.60
2022-12-03T18:44:53.281Z,28.62
2022-12-03T18:47:28.701Z,28.63
2022-12-03T18:50:00.136Z,28.59
2022-12-03T18:52:32.247Z,28.56
2022-12-03T18:55:03.745Z,28.52
2022-12-03T18:57:35.016Z,28.13
2022-12-03T19:00:13.488Z,28.14
2022-12-03T19:03:02.639Z,28.54
2022-12-03T19:05:36.779Z,27.62
2022-12-03T19:08:15.613Z,28.47
2022-12-03T19:10:56.589Z,28.49
2022-12-03T19:13:29.530Z,28.48
2022-12-03T19:16:04.930Z,27.87
2022-12-03T19:18:36.701Z,28.40
2022-12-03T19:21:10.409Z,28.46
2022-12-03T19:23:47.333Z,28.45
2022-12-03T19:26:30.610Z,28.41
2022-12-03T19:29:02.319Z,28.40
2022-12-03T19:31:35.254Z,28.32
2022-12-03T19:34:06.574Z,28.41
2022-12-03T19:36:38.471Z,28.33
2022-12-03T19:39:09.697Z,28.34
2022-12-03T19:41:43.270Z,28.12
2022-12-03T19:44:18.785Z,28.32
2022-12-03T19:46:52.308Z,28.21
2022-12-03T19:49:24.192Z,28.32
2022-12-03T19:51:55.593Z,28.29
2022-12-03T19:54:26.912Z,28.18
2022-12-03T19:56:58.189Z,28.23
2022-12-03T19:59:29.460Z,28.12
2022-12-03T20:02:00.945Z,28.16
2022-12-03T20:04:32.480Z,28.11
2022-12-03T20:07:04.209Z,28.20
2022-12-03T20:09:35.558Z,28.20
2022-12-03T20:12:06.996Z,27.86
2022-12-03T20:14:38.370Z,28.11
2022-12-03T20:17:10.330Z,28.11
2022-12-03T20:19:41.624Z,28.12
2022-12-03T20:22:12.827Z,28.14
2022-12-03T20:24:44.144Z,28.12
2022-12-03T20:27:19.617Z,28.12
2022-12-03T20:29:54.128Z,28.13
2022-12-03T20:32:26.370Z,28.04
2022-12-03T20:34:57.666Z,28.03
2022-12-03T20:37:28.935Z,28.08
2022-12-03T20:40:00.314Z,28.05
2022-12-03T20:42:31.585Z,27.93
2022-12-03T20:45:03.461Z,27.93
2022-12-03T20:47:34.805Z,28.03
2022-12-03T20:50:06.609Z,27.75
2022-12-03T20:52:37.729Z,27.70
2022-12-03T20:55:09.190Z,27.99
2022-12-03T20:57:40.456Z,27.99
2022-12-03T21:00:12.075Z,27.99
2022-12-03T21:02:43.629Z,27.97
2022-12-03T21:05:15.021Z,27.90
2022-12-03T21:07:46.577Z,27.93
2022-12-03T21:10:36.271Z,27.92
2022-12-03T21:13:08.110Z,27.91
2022-12-03T21:15:39.461Z,27.80
2022-12-03T21:18:13.187Z,27.90
2022-12-03T21:20:49.666Z,27.91
2022-12-03T21:23:21.031Z,27.91
2022-12-03T21:25:52.371Z,27.88
2022-12-03T21:28:24.165Z,27.88
2022-12-03T21:30:55.669Z,27.88
2022-12-03T21:33:26.969Z,27.78
2022-12-03T21:35:58.945Z,27.82
2022-12-03T21:38:31.457Z,27.87
2022-12-03T21:41:03.576Z,27.85
2022-12-03T21:43:35.589Z,27.85
2022-12-03T21:47:10.773Z,27.91
2022-12-03T21:49:03.353Z,27.82
2022-12-03T21:51:34.977Z,27.75
2022-12-03T21:54:06.359Z,27.83
2022-12-03T21:56:37.668Z,27.88
2022-12-03T21:59:08.925Z,27.90
2022-12-03T22:01:45.562Z,27.89
2022-12-03T22:04:18.472Z,27.91
2022-12-03T22:06:49.877Z,27.91
2022-12-03T22:09:26.284Z,27.79
2022-12-03T22:12:00.718Z,27.79
2022-12-03T22:14:32.967Z,27.44
2022-12-03T22:17:04.349Z,27.86
2022-12-03T22:19:35.881Z,27.82
2022-12-03T22:22:07.121Z,27.25
2022-12-03T22:24:38.378Z,27.72
2022-12-03T22:27:09.836Z,27.43
2022-12-03T22:29:41.146Z,27.67
2022-12-03T22:32:13.067Z,27.75
2022-12-03T22:34:44.861Z,27.63
2022-12-03T22:37:15.889Z,27.40
2022-12-03T22:39:47.100Z,27.52
2022-12-03T22:42:18.336Z,27.66
2022-12-03T22:44:49.675Z,27.46
2022-12-03T22:47:21.252Z,27.64
2022-12-03T22:49:52.789Z,27.20
2022-12-03T22:52:24.275Z,27.57
2022-12-03T22:54:55.720Z,27.46
2022-12-03T22:57:27.040Z,27.55
2022-12-03T22:59:58.329Z,27.58
2022-12-03T23:02:29.707Z,27.36
2022-12-03T23:05:01.266Z,27.54
2022-12-03T23:07:32.617Z,27.59
2022-12-03T23:10:04.628Z,27.49
2022-12-03T23:12:35.919Z,27.68
2022-12-03T23:15:08.823Z,27.76
2022-12-03T23:17:40.101Z,27.82
2022-12-03T23:20:12.144Z,27.86
2022-12-03T23:22:43.509Z,27.92
2022-12-03T23:25:14.984Z,27.99
2022-12-03T23:27:47.264Z,28.02
2022-12-03T23:30:19.341Z,27.65
2022-12-03T23:32:50.656Z,28.05
2022-12-03T23:35:21.991Z,28.14
2022-12-03T23:37:53.210Z,28.18
2022-12-03T23:40:24.696Z,28.02
2022-12-03T23:42:55.942Z,28.21
2022-12-03T23:45:27.804Z,27.97
2022-12-03T23:47:58.979Z,28.32
2022-12-03T23:50:30.972Z,28.34
2022-12-03T23:53:02.259Z,28.37
2022-12-03T23:55:33.665Z,28.45
2022-12-03T23:58:05.344Z,28.51
